Etusivu
METAR-TAF:

METAR-TAF

Lentoasemat :

Shenandoah Municipal Airport

Shenandoah, Iowa, Yhdysvallat

Leveyspiiri: 40-45N, Pituuspiiri: 095-25W, korkeus merenpinnasta: 296 m

Tämänhetkinen sää

Tämä raportti tehtiin 22 minuuttia sitten, kello 02.55 UTC
Tuuli 13 kn pohjoisesta/koillisesta puuskistuen 21 kn:hen
Lämpötila 4°C
Kosteus 93%
Ilmanpaine 1016 hPa
Näkyvyys: 9.7 km
Pilvistä 1200 ft:n korkeudessa
heikkoa sadetta

METAR: KSDA 230255Z AUTO 02013G21KT 6SM -RA OVC012 04/03 A2999 RMK AO2 P0026

Aika: 22:17 (03:17 UTC)


TAF: puuttuu

Säähavainnot ja -ennusteet yli 4000 lentoasemalta (METAR- ja TAF-raportit).

Käytössä olevat sääasemat on merkitty karttaan keltaisilla ja punaisilla pisteillä.

Aseta hiiri pisteen päälle nähdäksesi sääaseman nimen.

Klikkaa sitten nähdäksesi säähavainnot ja -ennusteet.

Kartan vaihtaminen: klikkaa mustalla rastilla varustettuja vihreitä pisteitä, niin voit zoomata sisään; viivalla varustettua vihreää pistettä, niin voit zoomata ulos tai vihreitä nuolia, niin pääset viereisille kartoille.


METAR-TAF: